EJU61MT EDDM-LIMC
Flight info
| Callsign | EJU61MT |
|---|---|
| Flight time | 1h 4m |
| Altitude | 24000 |
| Route | MERSI5S MERSI Y100 ATMAX Z999 KPT/N0365F230 Z999 BEMKI L607 XEBIX Y740 NATAG DCT LORLO DCT ATPED DCT LUSIL DCT EVRIP |
| Aircraft | A320/M-SDE2E3FGHIJ1RWXYZ/LB1 |
Departure
| Time | 2026-05-05 19:11 |
|---|---|
| Airport | Munich Airport (EDDM) |
Arrival
| Time | 2026-05-05 20:16 |
|---|---|
| Airport | Milan Malpensa International Airport (LIMC) |
| Time | Latitude | Longitude | Altitude | Speed | Heading |
|---|---|---|---|---|---|
| 2026-05-05 18:43 | 48.35411 | 11.79319 | 1461 ft | 0 kts | 270° |
| 2026-05-05 19:02 | 48.35411 | 11.79337 | 1461 ft | 4 kts | 270° |
| 2026-05-05 19:03 | 48.35410 | 11.79379 | 1463 ft | 4 kts | 270° |
| 2026-05-05 19:03 | 48.35410 | 11.79411 | 1461 ft | 4 kts | 263° |
| 2026-05-05 19:03 | 48.35419 | 11.79446 | 1459 ft | 4 kts | 218° |
| 2026-05-05 19:03 | 48.35440 | 11.79456 | 1457 ft | 3 kts | 173° |
| 2026-05-05 19:04 | 48.35457 | 11.79453 | 1459 ft | 0 kts | 173° |
| 2026-05-05 19:06 | 48.35446 | 11.79459 | 1462 ft | 7 kts | 157° |
| 2026-05-05 19:06 | 48.35398 | 11.79509 | 1465 ft | 8 kts | 135° |
| 2026-05-05 19:06 | 48.35362 | 11.79563 | 1462 ft | 8 kts | 135° |
| 2026-05-05 19:07 | 48.35319 | 11.79612 | 1463 ft | 7 kts | 169° |
| 2026-05-05 19:07 | 48.35278 | 11.79622 | 1465 ft | 7 kts | 173° |
| 2026-05-05 19:07 | 48.35220 | 11.79632 | 1467 ft | 8 kts | 173° |
| 2026-05-05 19:07 | 48.35159 | 11.79643 | 1466 ft | 11 kts | 173° |
| 2026-05-05 19:08 | 48.35085 | 11.79656 | 1459 ft | 10 kts | 173° |
| 2026-05-05 19:08 | 48.35024 | 11.79666 | 1467 ft | 8 kts | 173° |
| 2026-05-05 19:08 | 48.34974 | 11.79675 | 1463 ft | 7 kts | 173° |
| 2026-05-05 19:08 | 48.34904 | 11.79687 | 1467 ft | 11 kts | 174° |
| 2026-05-05 19:09 | 48.34817 | 11.79702 | 1462 ft | 14 kts | 173° |
| 2026-05-05 19:09 | 48.34718 | 11.79709 | 1467 ft | 14 kts | 202° |
| 2026-05-05 19:09 | 48.34654 | 11.79600 | 1462 ft | 14 kts | 233° |
| 2026-05-05 19:09 | 48.34591 | 11.79466 | 1462 ft | 18 kts | 234° |
| 2026-05-05 19:10 | 48.34505 | 11.79296 | 1463 ft | 22 kts | 234° |
| 2026-05-05 19:10 | 48.34416 | 11.79121 | 1464 ft | 19 kts | 230° |
| 2026-05-05 19:10 | 48.34364 | 11.78973 | 1462 ft | 15 kts | 263° |
| 2026-05-05 19:10 | 48.34340 | 11.78677 | 1467 ft | 59 kts | 263° |
| 2026-05-05 19:11 | 48.34267 | 11.77714 | 1465 ft | 124 kts | 263° |
| 2026-05-05 19:11 | 48.34151 | 11.76173 | 1541 ft | 166 kts | 264° |
| 2026-05-05 19:11 | 48.34026 | 11.74415 | 2196 ft | 169 kts | 264° |
| 2026-05-05 19:11 | 48.33898 | 11.72660 | 2886 ft | 172 kts | 264° |
| 2026-05-05 19:12 | 48.33757 | 11.70774 | 3238 ft | 193 kts | 263° |
| 2026-05-05 19:12 | 48.33593 | 11.68659 | 3507 ft | 216 kts | 263° |
| 2026-05-05 19:12 | 48.33407 | 11.66319 | 4052 ft | 230 kts | 263° |
| 2026-05-05 19:12 | 48.33216 | 11.63896 | 4746 ft | 242 kts | 263° |
| 2026-05-05 19:13 | 48.33024 | 11.61261 | 5221 ft | 263 kts | 264° |
| 2026-05-05 19:13 | 48.32828 | 11.58489 | 6006 ft | 270 kts | 264° |
| 2026-05-05 19:13 | 48.32627 | 11.55654 | 6796 ft | 276 kts | 264° |
| 2026-05-05 19:13 | 48.32420 | 11.52772 | 7080 ft | 278 kts | 264° |
| 2026-05-05 19:14 | 48.32209 | 11.49890 | 7164 ft | 277 kts | 264° |
| 2026-05-05 19:14 | 48.31997 | 11.47014 | 7177 ft | 277 kts | 263° |
| 2026-05-05 19:14 | 48.31739 | 11.44126 | 7521 ft | 283 kts | 256° |
| 2026-05-05 19:14 | 48.30915 | 11.41450 | 8467 ft | 284 kts | 233° |
| 2026-05-05 19:15 | 48.29477 | 11.39414 | 9332 ft | 287 kts | 218° |
| 2026-05-05 19:15 | 48.27883 | 11.37596 | 10172 ft | 290 kts | 217° |
| 2026-05-05 19:15 | 48.26210 | 11.35715 | 10534 ft | 312 kts | 217° |
| 2026-05-05 19:15 | 48.24418 | 11.33704 | 10966 ft | 328 kts | 217° |
| 2026-05-05 19:16 | 48.22554 | 11.31611 | 11676 ft | 334 kts | 217° |
| 2026-05-05 19:16 | 48.20731 | 11.29559 | 12400 ft | 338 kts | 217° |
| 2026-05-05 19:16 | 48.18802 | 11.27383 | 13152 ft | 342 kts | 217° |
| 2026-05-05 19:16 | 48.16909 | 11.25251 | 13851 ft | 345 kts | 217° |
| 2026-05-05 19:17 | 48.14980 | 11.23073 | 14529 ft | 349 kts | 217° |
| 2026-05-05 19:17 | 48.13035 | 11.20877 | 15186 ft | 352 kts | 217° |
| 2026-05-05 19:17 | 48.11076 | 11.18670 | 15837 ft | 356 kts | 217° |
| 2026-05-05 19:17 | 48.09100 | 11.16446 | 16466 ft | 360 kts | 217° |
| 2026-05-05 19:18 | 48.07091 | 11.14189 | 17089 ft | 363 kts | 217° |
| 2026-05-05 19:18 | 48.05063 | 11.11918 | 17695 ft | 366 kts | 217° |
| 2026-05-05 19:18 | 48.03012 | 11.09626 | 18277 ft | 370 kts | 217° |
| 2026-05-05 19:18 | 48.00971 | 11.07273 | 18808 ft | 373 kts | 221° |
| 2026-05-05 19:19 | 47.99199 | 11.04444 | 18971 ft | 374 kts | 233° |
| 2026-05-05 19:19 | 47.97862 | 11.01141 | 19007 ft | 374 kts | 245° |
| 2026-05-05 19:19 | 47.97000 | 10.97488 | 19010 ft | 373 kts | 256° |
| 2026-05-05 19:19 | 47.96351 | 10.93730 | 19009 ft | 373 kts | 255° |
| 2026-05-05 19:20 | 47.95637 | 10.90006 | 19008 ft | 373 kts | 248° |
| 2026-05-05 19:20 | 47.94334 | 10.86624 | 19009 ft | 373 kts | 230° |
| 2026-05-05 19:20 | 47.92407 | 10.84059 | 19008 ft | 373 kts | 212° |
| 2026-05-05 19:20 | 47.90055 | 10.82554 | 19010 ft | 374 kts | 194° |
| 2026-05-05 19:21 | 47.87471 | 10.81634 | 19379 ft | 378 kts | 193° |
| 2026-05-05 19:21 | 47.84902 | 10.80728 | 19967 ft | 381 kts | 193° |
| 2026-05-05 19:21 | 47.82313 | 10.79811 | 20517 ft | 384 kts | 193° |
| 2026-05-05 19:21 | 47.79736 | 10.78895 | 21039 ft | 387 kts | 194° |
| 2026-05-05 19:22 | 47.77137 | 10.77968 | 21536 ft | 390 kts | 194° |
| 2026-05-05 19:22 | 47.74457 | 10.77010 | 22031 ft | 393 kts | 194° |
| 2026-05-05 19:22 | 47.71783 | 10.76054 | 22511 ft | 396 kts | 194° |
| 2026-05-05 19:22 | 47.69097 | 10.75095 | 22983 ft | 399 kts | 194° |
| 2026-05-05 19:23 | 47.66382 | 10.74131 | 23445 ft | 402 kts | 194° |
| 2026-05-05 19:23 | 47.63621 | 10.73152 | 23866 ft | 405 kts | 194° |
| 2026-05-05 19:23 | 47.60924 | 10.72198 | 23984 ft | 403 kts | 193° |
| 2026-05-05 19:23 | 47.58246 | 10.71253 | 24008 ft | 388 kts | 193° |
| 2026-05-05 19:24 | 47.55635 | 10.70331 | 24009 ft | 384 kts | 194° |
| 2026-05-05 19:24 | 47.53044 | 10.69414 | 24009 ft | 383 kts | 194° |
| 2026-05-05 19:24 | 47.50456 | 10.68501 | 24010 ft | 383 kts | 194° |
| 2026-05-05 19:24 | 47.47859 | 10.67584 | 24009 ft | 384 kts | 193° |
| 2026-05-05 19:25 | 47.45258 | 10.66669 | 24009 ft | 383 kts | 193° |
| 2026-05-05 19:25 | 47.42671 | 10.65760 | 24009 ft | 383 kts | 193° |
| 2026-05-05 19:25 | 47.40070 | 10.64846 | 23940 ft | 385 kts | 193° |
| 2026-05-05 19:25 | 47.37470 | 10.63934 | 23695 ft | 385 kts | 193° |
| 2026-05-05 19:26 | 47.34871 | 10.63024 | 23444 ft | 382 kts | 193° |
| 2026-05-05 19:26 | 47.32301 | 10.62124 | 23195 ft | 381 kts | 193° |
| 2026-05-05 19:26 | 47.29736 | 10.61228 | 23004 ft | 381 kts | 193° |
| 2026-05-05 19:26 | 47.27161 | 10.60329 | 23005 ft | 379 kts | 193° |
| 2026-05-05 19:27 | 47.24593 | 10.59430 | 23009 ft | 380 kts | 193° |
| 2026-05-05 19:27 | 47.22007 | 10.58525 | 23010 ft | 382 kts | 193° |
| 2026-05-05 19:27 | 47.19427 | 10.57623 | 23008 ft | 381 kts | 193° |
| 2026-05-05 19:27 | 47.16845 | 10.56722 | 23011 ft | 381 kts | 193° |
| 2026-05-05 19:28 | 47.14287 | 10.55835 | 23010 ft | 378 kts | 193° |
| 2026-05-05 19:28 | 47.11723 | 10.54948 | 23009 ft | 378 kts | 193° |
| 2026-05-05 19:28 | 47.09157 | 10.54066 | 23008 ft | 381 kts | 193° |
| 2026-05-05 19:28 | 47.06522 | 10.53567 | 23011 ft | 384 kts | 181° |
| 2026-05-05 19:29 | 47.03857 | 10.53855 | 23011 ft | 384 kts | 169° |
| 2026-05-05 19:29 | 47.01282 | 10.54869 | 23014 ft | 384 kts | 162° |
| 2026-05-05 19:29 | 46.98729 | 10.56042 | 23027 ft | 384 kts | 163° |
| 2026-05-05 19:29 | 46.96182 | 10.57203 | 23030 ft | 383 kts | 163° |
| 2026-05-05 19:30 | 46.93634 | 10.58351 | 23034 ft | 383 kts | 163° |
| 2026-05-05 19:30 | 46.91092 | 10.59491 | 23030 ft | 382 kts | 163° |
| 2026-05-05 19:30 | 46.88548 | 10.60632 | 23010 ft | 382 kts | 163° |
| 2026-05-05 19:30 | 46.86011 | 10.61774 | 23000 ft | 382 kts | 163° |
| 2026-05-05 19:31 | 46.83471 | 10.62919 | 22997 ft | 383 kts | 163° |
| 2026-05-05 19:31 | 46.80923 | 10.64069 | 22994 ft | 383 kts | 163° |
| 2026-05-05 19:31 | 46.78378 | 10.65218 | 22987 ft | 383 kts | 163° |
| 2026-05-05 19:31 | 46.75831 | 10.66349 | 22987 ft | 383 kts | 165° |
| 2026-05-05 19:32 | 46.73207 | 10.66991 | 22985 ft | 383 kts | 177° |
| 2026-05-05 19:32 | 46.70585 | 10.66849 | 22994 ft | 382 kts | 189° |
| 2026-05-05 19:32 | 46.68003 | 10.65954 | 22992 ft | 382 kts | 197° |
| 2026-05-05 19:32 | 46.65467 | 10.64821 | 22992 ft | 382 kts | 197° |
| 2026-05-05 19:33 | 46.62927 | 10.63698 | 23007 ft | 382 kts | 197° |
| 2026-05-05 19:33 | 46.60385 | 10.62583 | 23027 ft | 381 kts | 197° |
| 2026-05-05 19:33 | 46.57852 | 10.61476 | 23015 ft | 380 kts | 197° |
| 2026-05-05 19:33 | 46.55318 | 10.60370 | 23001 ft | 381 kts | 197° |
| 2026-05-05 19:34 | 46.52779 | 10.59260 | 22995 ft | 381 kts | 197° |
| 2026-05-05 19:34 | 46.50239 | 10.58150 | 22998 ft | 381 kts | 197° |
| 2026-05-05 19:34 | 46.47692 | 10.57038 | 22991 ft | 382 kts | 197° |
| 2026-05-05 19:35 | 46.42577 | 10.54807 | 23009 ft | 385 kts | 197° |
| 2026-05-05 19:35 | 46.40053 | 10.53707 | 23006 ft | 383 kts | 197° |
| 2026-05-05 19:35 | 46.37496 | 10.52593 | 23009 ft | 385 kts | 197° |
| 2026-05-05 19:35 | 46.34936 | 10.51478 | 23007 ft | 385 kts | 197° |
| 2026-05-05 19:36 | 46.32373 | 10.50363 | 23010 ft | 385 kts | 197° |
| 2026-05-05 19:36 | 46.29820 | 10.49253 | 23009 ft | 382 kts | 197° |
| 2026-05-05 19:36 | 46.27272 | 10.48152 | 23010 ft | 382 kts | 197° |
| 2026-05-05 19:36 | 46.24728 | 10.47055 | 23016 ft | 381 kts | 197° |
| 2026-05-05 19:37 | 46.22190 | 10.45962 | 23023 ft | 380 kts | 197° |
| 2026-05-05 19:37 | 46.19671 | 10.44844 | 23008 ft | 380 kts | 201° |
| 2026-05-05 19:37 | 46.17301 | 10.43162 | 22997 ft | 380 kts | 213° |
| 2026-05-05 19:37 | 46.15255 | 10.40770 | 22991 ft | 380 kts | 226° |
| 2026-05-05 19:38 | 46.13625 | 10.37791 | 23001 ft | 379 kts | 239° |
| 2026-05-05 19:38 | 46.12392 | 10.34437 | 23014 ft | 378 kts | 243° |
| 2026-05-05 19:38 | 46.11206 | 10.31059 | 23032 ft | 377 kts | 243° |
| 2026-05-05 19:38 | 46.10016 | 10.27698 | 23035 ft | 376 kts | 243° |
| 2026-05-05 19:39 | 46.08824 | 10.24343 | 23007 ft | 376 kts | 243° |
| 2026-05-05 19:39 | 46.07629 | 10.20987 | 22998 ft | 377 kts | 243° |
| 2026-05-05 19:39 | 46.06430 | 10.17631 | 22994 ft | 377 kts | 243° |
| 2026-05-05 19:39 | 46.05619 | 10.15363 | 22991 ft | 378 kts | 243° |
| 2026-05-05 19:40 | 46.04418 | 10.12003 | 22992 ft | 378 kts | 243° |
| 2026-05-05 19:40 | 46.03230 | 10.08618 | 22992 ft | 379 kts | 244° |
| 2026-05-05 19:40 | 46.02080 | 10.05226 | 22992 ft | 375 kts | 244° |
| 2026-05-05 19:40 | 46.00986 | 10.01934 | 22856 ft | 364 kts | 245° |
| 2026-05-05 19:41 | 45.99897 | 9.98635 | 22507 ft | 359 kts | 245° |
| 2026-05-05 19:41 | 45.98841 | 9.95455 | 22136 ft | 355 kts | 244° |
| 2026-05-05 19:41 | 45.97780 | 9.92278 | 21808 ft | 350 kts | 244° |
| 2026-05-05 19:41 | 45.96713 | 9.89095 | 21392 ft | 347 kts | 244° |
| 2026-05-05 19:42 | 45.95663 | 9.85981 | 21053 ft | 346 kts | 244° |
| 2026-05-05 19:42 | 45.94621 | 9.82908 | 20994 ft | 346 kts | 244° |
| 2026-05-05 19:42 | 45.93549 | 9.79751 | 20846 ft | 347 kts | 244° |
| 2026-05-05 19:42 | 45.92509 | 9.76691 | 20427 ft | 345 kts | 244° |
| 2026-05-05 19:43 | 45.91445 | 9.73556 | 19997 ft | 343 kts | 244° |
| 2026-05-05 19:43 | 45.90422 | 9.70539 | 19678 ft | 339 kts | 244° |
| 2026-05-05 19:43 | 45.89391 | 9.67510 | 19302 ft | 336 kts | 244° |
| 2026-05-05 19:43 | 45.88368 | 9.64509 | 18953 ft | 333 kts | 244° |
| 2026-05-05 19:44 | 45.87353 | 9.61539 | 18586 ft | 331 kts | 244° |
| 2026-05-05 19:44 | 45.86342 | 9.58589 | 18179 ft | 330 kts | 244° |
| 2026-05-05 19:44 | 45.85333 | 9.55643 | 17813 ft | 328 kts | 244° |
| 2026-05-05 19:44 | 45.84331 | 9.52715 | 17444 ft | 327 kts | 244° |
| 2026-05-05 19:45 | 45.83335 | 9.49807 | 17114 ft | 324 kts | 244° |
| 2026-05-05 19:45 | 45.82352 | 9.46945 | 16959 ft | 315 kts | 244° |
| 2026-05-05 19:45 | 45.81398 | 9.44171 | 16754 ft | 310 kts | 244° |
| 2026-05-05 19:45 | 45.80452 | 9.41424 | 16492 ft | 306 kts | 244° |
| 2026-05-05 19:46 | 45.79514 | 9.38707 | 16207 ft | 303 kts | 244° |
| 2026-05-05 19:46 | 45.78587 | 9.36028 | 16076 ft | 296 kts | 244° |
| 2026-05-05 19:46 | 45.77682 | 9.33414 | 15867 ft | 291 kts | 244° |
| 2026-05-05 19:46 | 45.76789 | 9.30834 | 15604 ft | 289 kts | 244° |
| 2026-05-05 19:47 | 45.75899 | 9.28260 | 15330 ft | 288 kts | 244° |
| 2026-05-05 19:47 | 45.75013 | 9.25694 | 15035 ft | 286 kts | 244° |
| 2026-05-05 19:47 | 45.74193 | 9.23118 | 14747 ft | 285 kts | 254° |
| 2026-05-05 19:47 | 45.73842 | 9.20347 | 14457 ft | 283 kts | 263° |
| 2026-05-05 19:48 | 45.73614 | 9.17551 | 14166 ft | 282 kts | 264° |
| 2026-05-05 19:48 | 45.73400 | 9.14766 | 13888 ft | 281 kts | 264° |
| 2026-05-05 19:48 | 45.73188 | 9.11996 | 13602 ft | 280 kts | 264° |
| 2026-05-05 19:48 | 45.72977 | 9.09237 | 13322 ft | 279 kts | 264° |
| 2026-05-05 19:49 | 45.72767 | 9.06485 | 13066 ft | 277 kts | 264° |
| 2026-05-05 19:49 | 45.72557 | 9.03747 | 13003 ft | 277 kts | 264° |
| 2026-05-05 19:49 | 45.72348 | 9.01001 | 13008 ft | 278 kts | 264° |
| 2026-05-05 19:49 | 45.72137 | 8.98253 | 13009 ft | 278 kts | 264° |
| 2026-05-05 19:50 | 45.71927 | 8.95504 | 13005 ft | 278 kts | 264° |
| 2026-05-05 19:50 | 45.71674 | 8.92771 | 13006 ft | 277 kts | 256° |
| 2026-05-05 19:50 | 45.70881 | 8.90294 | 12754 ft | 275 kts | 232° |
| 2026-05-05 19:50 | 45.69457 | 8.88500 | 12451 ft | 274 kts | 208° |
| 2026-05-05 19:51 | 45.67656 | 8.87676 | 12140 ft | 273 kts | 185° |
| 2026-05-05 19:51 | 45.65763 | 8.87848 | 11817 ft | 273 kts | 172° |
| 2026-05-05 19:51 | 45.63886 | 8.88217 | 11500 ft | 273 kts | 172° |
| 2026-05-05 19:51 | 45.62007 | 8.88579 | 11191 ft | 272 kts | 173° |
| 2026-05-05 19:52 | 45.60139 | 8.88936 | 10818 ft | 269 kts | 173° |
| 2026-05-05 19:52 | 45.58296 | 8.89289 | 10280 ft | 267 kts | 173° |
| 2026-05-05 19:52 | 45.56457 | 8.89639 | 9755 ft | 265 kts | 173° |
| 2026-05-05 19:52 | 45.54635 | 8.89983 | 9262 ft | 263 kts | 173° |
| 2026-05-05 19:53 | 45.52828 | 8.90327 | 8777 ft | 259 kts | 173° |
| 2026-05-05 19:53 | 45.51077 | 8.90661 | 8395 ft | 251 kts | 173° |
| 2026-05-05 19:53 | 45.49363 | 8.91012 | 7914 ft | 247 kts | 171° |
| 2026-05-05 19:53 | 45.47681 | 8.91444 | 7394 ft | 245 kts | 169° |
| 2026-05-05 19:54 | 45.46015 | 8.91907 | 6876 ft | 243 kts | 169° |
| 2026-05-05 19:54 | 45.44363 | 8.92376 | 6355 ft | 241 kts | 169° |
| 2026-05-05 19:54 | 45.42732 | 8.92837 | 6050 ft | 236 kts | 169° |
| 2026-05-05 19:54 | 45.41176 | 8.93270 | 6018 ft | 220 kts | 169° |
| 2026-05-05 19:55 | 45.39680 | 8.93684 | 6017 ft | 220 kts | 169° |
| 2026-05-05 19:55 | 45.38174 | 8.94097 | 6016 ft | 220 kts | 169° |
| 2026-05-05 19:55 | 45.36650 | 8.94514 | 6016 ft | 220 kts | 169° |
| 2026-05-05 19:55 | 45.35165 | 8.94918 | 6016 ft | 220 kts | 169° |
| 2026-05-05 19:56 | 45.33652 | 8.95326 | 6016 ft | 220 kts | 170° |
| 2026-05-05 19:56 | 45.32169 | 8.95724 | 6016 ft | 219 kts | 170° |
| 2026-05-05 19:56 | 45.30670 | 8.96129 | 6016 ft | 220 kts | 169° |
| 2026-05-05 19:56 | 45.29172 | 8.96537 | 6016 ft | 220 kts | 169° |
| 2026-05-05 19:57 | 45.27669 | 8.96946 | 6016 ft | 220 kts | 169° |
| 2026-05-05 19:57 | 45.26175 | 8.97352 | 6016 ft | 219 kts | 169° |
| 2026-05-05 19:57 | 45.24674 | 8.97759 | 6016 ft | 219 kts | 169° |
| 2026-05-05 19:57 | 45.23178 | 8.98163 | 6016 ft | 219 kts | 169° |
| 2026-05-05 19:58 | 45.21676 | 8.98567 | 6016 ft | 219 kts | 169° |
| 2026-05-05 19:58 | 45.20179 | 8.98969 | 6016 ft | 219 kts | 169° |
| 2026-05-05 19:58 | 45.18680 | 8.99372 | 6016 ft | 219 kts | 169° |
| 2026-05-05 19:58 | 45.17176 | 8.99775 | 6016 ft | 219 kts | 169° |
| 2026-05-05 19:59 | 45.15679 | 9.00177 | 6016 ft | 220 kts | 169° |
| 2026-05-05 19:59 | 45.14179 | 9.00579 | 6016 ft | 220 kts | 169° |
| 2026-05-05 19:59 | 45.12679 | 9.00981 | 6016 ft | 220 kts | 169° |
| 2026-05-05 19:59 | 45.11186 | 9.01381 | 6016 ft | 219 kts | 169° |
| 2026-05-05 20:00 | 45.09684 | 9.01784 | 6016 ft | 219 kts | 169° |
| 2026-05-05 20:00 | 45.08188 | 9.02184 | 6016 ft | 219 kts | 169° |
| 2026-05-05 20:00 | 45.06688 | 9.02586 | 6016 ft | 219 kts | 169° |
| 2026-05-05 20:00 | 45.05187 | 9.02988 | 6016 ft | 219 kts | 169° |
| 2026-05-05 20:01 | 45.03686 | 9.03390 | 6016 ft | 219 kts | 169° |
| 2026-05-05 20:01 | 45.02187 | 9.03791 | 6016 ft | 220 kts | 169° |
| 2026-05-05 20:01 | 45.00687 | 9.04193 | 6016 ft | 220 kts | 169° |
| 2026-05-05 20:01 | 44.99186 | 9.04594 | 6016 ft | 220 kts | 169° |
| 2026-05-05 20:02 | 44.97682 | 9.04973 | 6011 ft | 219 kts | 175° |
| 2026-05-05 20:02 | 44.96210 | 9.04585 | 6013 ft | 217 kts | 210° |
| 2026-05-05 20:02 | 44.95169 | 9.03094 | 6016 ft | 216 kts | 245° |
| 2026-05-05 20:02 | 44.94921 | 9.01036 | 6016 ft | 216 kts | 279° |
| 2026-05-05 20:03 | 44.95540 | 8.99129 | 6023 ft | 217 kts | 308° |
| 2026-05-05 20:03 | 44.96548 | 8.97543 | 6016 ft | 218 kts | 319° |
| 2026-05-05 20:03 | 44.97865 | 8.96520 | 6016 ft | 218 kts | 343° |
| 2026-05-05 20:03 | 44.99329 | 8.95944 | 6018 ft | 219 kts | 344° |
| 2026-05-05 20:04 | 45.00795 | 8.95373 | 6017 ft | 219 kts | 344° |
| 2026-05-05 20:04 | 45.02263 | 8.94804 | 6016 ft | 219 kts | 344° |
| 2026-05-05 20:04 | 45.03730 | 8.94236 | 6016 ft | 219 kts | 344° |
| 2026-05-05 20:04 | 45.05199 | 8.93667 | 6016 ft | 219 kts | 344° |
| 2026-05-05 20:05 | 45.06664 | 8.93095 | 6016 ft | 219 kts | 344° |
| 2026-05-05 20:05 | 45.08132 | 8.92523 | 6016 ft | 219 kts | 344° |
| 2026-05-05 20:05 | 45.09599 | 8.91954 | 6016 ft | 219 kts | 344° |
| 2026-05-05 20:05 | 45.11067 | 8.91386 | 6016 ft | 219 kts | 344° |
| 2026-05-05 20:06 | 45.12535 | 8.90818 | 6016 ft | 219 kts | 344° |
| 2026-05-05 20:06 | 45.13997 | 8.90249 | 6016 ft | 219 kts | 344° |
| 2026-05-05 20:06 | 45.15462 | 8.89679 | 6016 ft | 219 kts | 344° |
| 2026-05-05 20:06 | 45.16925 | 8.89111 | 6005 ft | 218 kts | 344° |
| 2026-05-05 20:07 | 45.18383 | 8.88544 | 5768 ft | 217 kts | 344° |
| 2026-05-05 20:07 | 45.19838 | 8.87976 | 5514 ft | 217 kts | 344° |
| 2026-05-05 20:07 | 45.21289 | 8.87410 | 5273 ft | 216 kts | 344° |
| 2026-05-05 20:07 | 45.22728 | 8.86850 | 5025 ft | 215 kts | 344° |
| 2026-05-05 20:08 | 45.24173 | 8.86288 | 4784 ft | 214 kts | 344° |
| 2026-05-05 20:08 | 45.25589 | 8.85734 | 4549 ft | 214 kts | 344° |
| 2026-05-05 20:08 | 45.27039 | 8.85165 | 4300 ft | 213 kts | 344° |
| 2026-05-05 20:08 | 45.28463 | 8.84606 | 4086 ft | 212 kts | 344° |
| 2026-05-05 20:09 | 45.29884 | 8.84050 | 4003 ft | 212 kts | 344° |
| 2026-05-05 20:09 | 45.31304 | 8.83497 | 4018 ft | 212 kts | 344° |
| 2026-05-05 20:09 | 45.32709 | 8.82946 | 4016 ft | 212 kts | 344° |
| 2026-05-05 20:09 | 45.34121 | 8.82391 | 4017 ft | 212 kts | 344° |
| 2026-05-05 20:10 | 45.35546 | 8.81832 | 4017 ft | 212 kts | 344° |
| 2026-05-05 20:10 | 45.36967 | 8.81273 | 4016 ft | 212 kts | 344° |
| 2026-05-05 20:10 | 45.38393 | 8.80713 | 4017 ft | 212 kts | 344° |
| 2026-05-05 20:10 | 45.39799 | 8.80089 | 4016 ft | 212 kts | 338° |
| 2026-05-05 20:11 | 45.41195 | 8.79431 | 4017 ft | 212 kts | 345° |
| 2026-05-05 20:11 | 45.42635 | 8.78966 | 4017 ft | 212 kts | 348° |
| 2026-05-05 20:11 | 45.44053 | 8.78569 | 4004 ft | 202 kts | 348° |
| 2026-05-05 20:11 | 45.45412 | 8.78197 | 3863 ft | 197 kts | 348° |
| 2026-05-05 20:12 | 45.46749 | 8.77830 | 3653 ft | 191 kts | 348° |
| 2026-05-05 20:12 | 45.48013 | 8.77484 | 3409 ft | 181 kts | 348° |
| 2026-05-05 20:12 | 45.49242 | 8.77146 | 3165 ft | 178 kts | 348° |
| 2026-05-05 20:12 | 45.50455 | 8.76812 | 2922 ft | 177 kts | 348° |
| 2026-05-05 20:13 | 45.51658 | 8.76482 | 2686 ft | 176 kts | 348° |
| 2026-05-05 20:13 | 45.52862 | 8.76151 | 2454 ft | 176 kts | 348° |
| 2026-05-05 20:13 | 45.54059 | 8.75821 | 2214 ft | 175 kts | 348° |
| 2026-05-05 20:13 | 45.55248 | 8.75494 | 1984 ft | 171 kts | 348° |
| 2026-05-05 20:14 | 45.56351 | 8.75191 | 1763 ft | 153 kts | 348° |
| 2026-05-05 20:14 | 45.57362 | 8.74912 | 1571 ft | 145 kts | 348° |
| 2026-05-05 20:14 | 45.58339 | 8.74627 | 1379 ft | 142 kts | 348° |
| 2026-05-05 20:14 | 45.59305 | 8.74374 | 1201 ft | 141 kts | 349° |
| 2026-05-05 20:15 | 45.60260 | 8.74105 | 1034 ft | 140 kts | 346° |
| 2026-05-05 20:15 | 45.61213 | 8.73832 | 825 ft | 139 kts | 349° |
| 2026-05-05 20:15 | 45.62158 | 8.73592 | 721 ft | 131 kts | 348° |
| 2026-05-05 20:15 | 45.62801 | 8.73410 | 731 ft | 52 kts | 349° |
| 2026-05-05 20:16 | 45.63079 | 8.73303 | 732 ft | 38 kts | 334° |
| 2026-05-05 20:16 | 45.63256 | 8.73080 | 740 ft | 31 kts | 303° |
| 2026-05-05 20:16 | 45.63361 | 8.72856 | 744 ft | 26 kts | 304° |
| 2026-05-05 20:16 | 45.63405 | 8.72632 | 746 ft | 19 kts | 248° |
| 2026-05-05 20:17 | 45.63388 | 8.72451 | 744 ft | 19 kts | 260° |
| 2026-05-05 20:17 | 45.63361 | 8.72257 | 747 ft | 21 kts | 255° |
| 2026-05-05 20:17 | 45.63331 | 8.72062 | 745 ft | 17 kts | 260° |
| 2026-05-05 20:17 | 45.63328 | 8.72039 | 747 ft | 0 kts | 259° |
| 2026-05-05 20:18 | 45.63329 | 8.71989 | 746 ft | 8 kts | 296° |
| 2026-05-05 20:19 | 45.63363 | 8.71950 | 747 ft | 5 kts | 341° |
| 2026-05-05 20:19 | 45.63418 | 8.71932 | 748 ft | 12 kts | 351° |
| 2026-05-05 20:19 | 45.63491 | 8.71911 | 748 ft | 10 kts | 349° |
| 2026-05-05 20:19 | 45.63581 | 8.71886 | 751 ft | 15 kts | 349° |
| 2026-05-05 20:20 | 45.63686 | 8.71857 | 751 ft | 15 kts | 349° |
| 2026-05-05 20:20 | 45.63786 | 8.71830 | 755 ft | 14 kts | 349° |
| 2026-05-05 20:20 | 45.63872 | 8.71853 | 756 ft | 11 kts | 39° |
| 2026-05-05 20:20 | 45.63904 | 8.71940 | 758 ft | 9 kts | 77° |
| 2026-05-05 20:21 | 45.63914 | 8.72032 | 756 ft | 9 kts | 84° |
| 2026-05-05 20:21 | 45.63918 | 8.72091 | 758 ft | 9 kts | 84° |
| 2026-05-05 20:21 | 45.63922 | 8.72188 | 757 ft | 6 kts | 90° |
| 2026-05-05 20:21 | 45.63928 | 8.72306 | 756 ft | 15 kts | 70° |
| 2026-05-05 20:22 | 45.64017 | 8.72330 | 757 ft | 16 kts | 349° |
| 2026-05-05 20:22 | 45.64150 | 8.72291 | 762 ft | 20 kts | 349° |
| 2026-05-05 20:22 | 45.64289 | 8.72254 | 765 ft | 21 kts | 349° |
| 2026-05-05 20:22 | 45.64378 | 8.72226 | 767 ft | 14 kts | 341° |
| 2026-05-05 20:23 | 45.64447 | 8.72169 | 768 ft | 7 kts | 350° |
| 2026-05-05 20:23 | 45.64479 | 8.72192 | 769 ft | 4 kts | 30° |
| 2026-05-05 20:23 | 45.64499 | 8.72210 | 769 ft | 2 kts | 33° |
| 2026-05-05 20:23 | 45.64509 | 8.72219 | 769 ft | 1 kts | 33° |
| 2026-05-05 20:24 | 45.64515 | 8.72225 | 769 ft | 0 kts | 34° |
| 2026-05-05 20:24 | 45.64517 | 8.72227 | 769 ft | 0 kts | 34° |